createdAt,value
2023-05-26T00:00:32.379Z,10.57
2023-05-26T00:01:32.574Z,10.56
2023-05-26T00:02:32.497Z,10.54
2023-05-26T00:03:32.502Z,10.53
2023-05-26T00:04:32.471Z,10.51
2023-05-26T00:05:32.426Z,10.48
2023-05-26T00:06:32.546Z,10.45
2023-05-26T00:07:32.441Z,10.44
2023-05-26T00:08:32.574Z,10.41
2023-05-26T00:09:32.529Z,10.39
2023-05-26T00:10:32.465Z,10.38
2023-05-26T00:11:32.506Z,10.39
2023-05-26T00:12:32.509Z,10.41
2023-05-26T00:13:32.556Z,10.41
2023-05-26T00:14:32.540Z,10.44
2023-05-26T00:15:32.586Z,10.46
2023-05-26T00:16:32.623Z,10.45
2023-05-26T00:17:32.586Z,10.44
2023-05-26T00:18:32.581Z,10.40
2023-05-26T00:19:32.669Z,10.36
2023-05-26T00:20:32.640Z,10.34
2023-05-26T00:21:32.620Z,10.30
2023-05-26T00:22:32.616Z,10.27
2023-05-26T00:23:32.627Z,10.23
2023-05-26T00:24:32.657Z,10.23
2023-05-26T00:25:32.653Z,10.22
2023-05-26T00:26:32.680Z,10.21
2023-05-26T00:27:32.701Z,10.24
2023-05-26T00:28:32.710Z,10.23
2023-05-26T00:29:32.721Z,10.24
2023-05-26T00:31:01.219Z,10.24
2023-05-26T00:32:00.054Z,10.23
2023-05-26T00:33:00.012Z,10.22
2023-05-26T00:33:59.976Z,10.22
2023-05-26T00:35:00.013Z,10.22
2023-05-26T00:35:59.968Z,10.20
2023-05-26T00:37:00.026Z,10.18
2023-05-26T00:37:59.950Z,10.16
2023-05-26T00:38:59.943Z,10.11
2023-05-26T00:39:59.952Z,10.10
2023-05-26T00:40:59.940Z,10.06
2023-05-26T00:41:59.931Z,10.04
2023-05-26T00:42:59.938Z,10.02
2023-05-26T00:43:59.944Z,10.00
2023-05-26T00:44:59.997Z,9.96
2023-05-26T00:45:59.980Z,9.93
2023-05-26T00:47:00.029Z,9.91
2023-05-26T00:47:59.995Z,9.91
2023-05-26T00:48:59.949Z,9.88
2023-05-26T00:49:59.973Z,9.85
2023-05-26T00:50:59.956Z,9.84
2023-05-26T00:51:59.963Z,9.83
2023-05-26T00:52:59.937Z,9.82
2023-05-26T00:53:59.978Z,9.79
2023-05-26T00:54:59.960Z,9.76
2023-05-26T00:55:59.973Z,9.74
2023-05-26T00:56:59.987Z,9.73
2023-05-26T00:57:59.953Z,9.70
2023-05-26T00:58:59.976Z,9.70
2023-05-26T00:59:59.977Z,9.68
2023-05-26T01:01:00.039Z,9.65
2023-05-26T01:02:00.060Z,9.62
2023-05-26T01:03:00.074Z,9.61
2023-05-26T01:04:00.109Z,9.58
2023-05-26T01:04:59.987Z,9.57
2023-05-26T01:05:59.983Z,9.55
2023-05-26T01:07:00.157Z,9.52
2023-05-26T01:08:00.144Z,9.51
2023-05-26T01:09:00.179Z,9.47
2023-05-26T01:10:00.202Z,9.45
2023-05-26T01:11:00.175Z,9.46
2023-05-26T01:12:00.165Z,9.46
2023-05-26T01:13:00.221Z,9.46
2023-05-26T01:14:00.185Z,9.46
2023-05-26T01:15:00.200Z,9.46
2023-05-26T01:16:00.258Z,9.44
2023-05-26T01:17:00.348Z,9.41
2023-05-26T01:18:00.320Z,9.38
2023-05-26T01:19:00.269Z,9.34
2023-05-26T01:20:00.394Z,9.31
2023-05-26T01:21:00.320Z,9.28
2023-05-26T01:22:00.293Z,9.25
2023-05-26T01:23:00.347Z,9.24
2023-05-26T01:24:00.317Z,9.21
2023-05-26T01:25:00.322Z,9.20
2023-05-26T01:26:00.344Z,9.20
2023-05-26T01:27:00.380Z,9.18
2023-05-26T01:28:00.356Z,9.16
2023-05-26T01:29:00.403Z,9.18
2023-05-26T01:30:00.407Z,9.18
2023-05-26T01:31:00.441Z,9.19
2023-05-26T01:32:00.402Z,9.16
2023-05-26T01:33:00.486Z,9.16
2023-05-26T01:34:00.532Z,9.16
2023-05-26T01:35:00.528Z,9.15
2023-05-26T01:36:00.498Z,9.15
2023-05-26T01:37:00.498Z,9.15
2023-05-26T01:38:00.491Z,9.14
2023-05-26T01:39:00.524Z,9.14
2023-05-26T01:40:00.528Z,9.14
2023-05-26T01:41:00.494Z,9.12
2023-05-26T01:42:00.516Z,9.11
2023-05-26T01:43:00.545Z,9.11
2023-05-26T01:44:00.572Z,9.11
2023-05-26T01:45:00.574Z,9.10
2023-05-26T01:46:00.613Z,9.09
2023-05-26T01:47:00.591Z,9.07
2023-05-26T01:48:00.670Z,9.05
2023-05-26T01:49:00.651Z,9.03
2023-05-26T01:50:00.647Z,9.01
2023-05-26T01:51:00.638Z,8.99
2023-05-26T01:52:00.635Z,8.99
2023-05-26T01:53:00.685Z,8.99
2023-05-26T01:54:00.710Z,8.99
2023-05-26T01:55:00.733Z,8.98
2023-05-26T01:56:00.711Z,8.96
2023-05-26T01:57:00.751Z,8.95
2023-05-26T01:58:00.786Z,8.96
2023-05-26T01:59:00.809Z,8.96
2023-05-26T02:00:00.744Z,8.96
2023-05-26T02:01:00.767Z,8.95
2023-05-26T02:02:00.832Z,8.96
2023-05-26T02:03:00.851Z,8.96
2023-05-26T02:04:00.934Z,8.96
2023-05-26T02:05:00.839Z,8.96
2023-05-26T02:06:00.847Z,8.95
2023-05-26T02:07:00.839Z,8.95
2023-05-26T02:08:00.870Z,8.93
2023-05-26T02:09:00.875Z,8.95
2023-05-26T02:10:00.912Z,8.96
2023-05-26T02:11:00.904Z,8.93
2023-05-26T02:12:00.935Z,8.93
2023-05-26T02:13:00.938Z,8.92
2023-05-26T02:14:00.946Z,8.92
2023-05-26T02:15:00.966Z,8.93
2023-05-26T02:16:01.039Z,8.92
2023-05-26T02:17:00.951Z,8.90
2023-05-26T02:18:01.083Z,8.88
2023-05-26T02:19:00.964Z,8.85
2023-05-26T02:20:01.041Z,8.80
2023-05-26T02:21:01.020Z,8.75
2023-05-26T02:22:01.037Z,8.73
2023-05-26T02:23:01.045Z,8.70
2023-05-26T02:24:01.043Z,8.70
2023-05-26T02:25:01.112Z,8.67
2023-05-26T02:26:01.068Z,8.66
2023-05-26T02:27:01.100Z,8.65
2023-05-26T02:28:01.099Z,8.65
2023-05-26T02:29:01.128Z,8.63
2023-05-26T02:30:01.137Z,8.64
2023-05-26T02:31:01.149Z,8.61
2023-05-26T02:32:01.218Z,8.61
2023-05-26T02:33:01.215Z,8.58
2023-05-26T02:34:01.155Z,8.58
2023-05-26T02:35:01.236Z,8.58
2023-05-26T02:36:01.229Z,8.55
2023-05-26T02:37:01.234Z,8.54
2023-05-26T02:38:01.215Z,8.53
2023-05-26T02:39:01.252Z,8.53
2023-05-26T02:40:01.251Z,8.54
2023-05-26T02:41:01.285Z,8.56
2023-05-26T02:42:01.262Z,8.58
2023-05-26T02:43:01.289Z,8.59
2023-05-26T02:44:01.285Z,8.58
2023-05-26T02:45:01.301Z,8.54
2023-05-26T02:46:01.409Z,8.52
2023-05-26T02:47:01.340Z,8.50
2023-05-26T02:48:01.390Z,8.47
2023-05-26T02:49:01.357Z,8.44
2023-05-26T02:50:01.378Z,8.42
2023-05-26T02:51:01.433Z,8.38
2023-05-26T02:52:01.383Z,8.39
2023-05-26T02:53:01.383Z,8.40
2023-05-26T02:54:01.391Z,8.37
2023-05-26T02:55:01.429Z,8.33
2023-05-26T02:56:01.500Z,8.32
2023-05-26T02:57:01.453Z,8.30
2023-05-26T02:58:01.481Z,8.27
2023-05-26T02:59:01.477Z,8.25
2023-05-26T03:00:01.523Z,8.25
2023-05-26T03:01:01.559Z,8.24
2023-05-26T03:02:01.504Z,8.22
2023-05-26T03:03:01.667Z,8.23
2023-05-26T03:04:01.579Z,8.21
2023-05-26T03:05:03.862Z,8.19
2023-05-26T03:06:01.604Z,8.19
2023-05-26T03:07:01.554Z,8.16
2023-05-26T03:08:01.589Z,8.13
2023-05-26T03:09:01.553Z,8.15
2023-05-26T03:10:01.551Z,8.14
2023-05-26T03:11:09.639Z,8.16
2023-05-26T03:12:01.570Z,8.13
2023-05-26T03:13:01.580Z,8.12
2023-05-26T03:14:01.588Z,8.11
2023-05-26T03:15:01.624Z,8.10
2023-05-26T03:16:01.572Z,8.08
2023-05-26T03:17:01.674Z,8.07
2023-05-26T03:18:01.655Z,8.07
2023-05-26T03:19:01.613Z,8.05
2023-05-26T03:20:01.647Z,8.03
2023-05-26T03:21:01.619Z,8.02
2023-05-26T03:22:14.134Z,8.00
2023-05-26T03:23:01.639Z,7.99
2023-05-26T03:24:01.656Z,7.94
2023-05-26T03:25:01.619Z,7.90
2023-05-26T03:26:01.597Z,7.87
2023-05-26T03:27:01.566Z,7.85
2023-05-26T03:28:01.588Z,7.84
2023-05-26T03:29:01.599Z,7.84
2023-05-26T03:30:01.584Z,7.83
2023-05-26T03:31:01.639Z,7.84
2023-05-26T03:32:01.641Z,7.82
2023-05-26T03:33:01.615Z,7.81
2023-05-26T03:34:01.583Z,7.79
2023-05-26T03:35:01.601Z,7.79
2023-05-26T03:36:01.592Z,7.78
2023-05-26T03:37:01.573Z,7.77
2023-05-26T03:38:01.598Z,7.75
2023-05-26T03:39:01.595Z,7.73
2023-05-26T03:40:01.635Z,7.73
2023-05-26T03:41:01.640Z,7.73
2023-05-26T03:42:01.603Z,7.70
2023-05-26T03:43:01.613Z,7.71
2023-05-26T03:44:01.617Z,7.70
2023-05-26T03:45:01.575Z,7.68
2023-05-26T03:46:01.641Z,7.68
2023-05-26T03:47:01.662Z,7.67
2023-05-26T03:48:01.654Z,7.66
2023-05-26T03:49:01.617Z,7.64
2023-05-26T03:50:04.460Z,7.64
2023-05-26T03:51:01.582Z,7.63
2023-05-26T03:52:01.684Z,7.65
2023-05-26T03:53:01.624Z,7.67
2023-05-26T03:54:01.671Z,7.67
2023-05-26T03:55:01.636Z,7.69
2023-05-26T03:56:01.615Z,7.70
2023-05-26T03:57:01.635Z,7.70
2023-05-26T03:58:01.649Z,7.71
2023-05-26T03:59:01.592Z,7.73
2023-05-26T04:00:01.663Z,7.75
2023-05-26T04:01:01.709Z,7.74
2023-05-26T04:02:01.742Z,7.74
2023-05-26T04:03:01.708Z,7.73
2023-05-26T04:04:01.728Z,7.73
2023-05-26T04:05:01.630Z,7.74
2023-05-26T04:06:01.613Z,7.73
2023-05-26T04:07:01.626Z,7.74
2023-05-26T04:08:01.656Z,7.74
2023-05-26T04:09:01.640Z,7.73
2023-05-26T04:10:01.660Z,7.72
2023-05-26T04:11:01.630Z,7.72
2023-05-26T04:12:01.638Z,7.73
2023-05-26T04:13:01.645Z,7.73
2023-05-26T04:14:01.669Z,7.74
2023-05-26T04:15:01.622Z,7.75
2023-05-26T04:16:01.661Z,7.77
2023-05-26T04:17:01.879Z,7.79
2023-05-26T04:18:01.664Z,7.79
2023-05-26T04:19:01.682Z,7.83
2023-05-26T04:20:04.162Z,7.85
2023-05-26T04:21:01.654Z,7.86
2023-05-26T04:22:01.637Z,7.87
2023-05-26T04:23:01.647Z,7.90
2023-05-26T04:24:01.607Z,7.94
2023-05-26T04:25:01.610Z,7.98
2023-05-26T04:26:01.640Z,8.03
2023-05-26T04:27:01.656Z,8.06
2023-05-26T04:28:01.617Z,8.09
2023-05-26T04:29:01.657Z,8.10
2023-05-26T04:30:01.650Z,8.12
2023-05-26T04:31:01.631Z,8.11
2023-05-26T04:32:01.766Z,8.12
2023-05-26T04:33:01.708Z,8.15
2023-05-26T04:34:01.633Z,8.18
2023-05-26T04:35:01.732Z,8.19
2023-05-26T04:36:01.665Z,8.22
2023-05-26T04:37:01.633Z,8.25
2023-05-26T04:38:01.672Z,8.27
2023-05-26T04:39:01.655Z,8.30
2023-05-26T04:40:01.682Z,8.32
2023-05-26T04:41:01.724Z,8.34
2023-05-26T04:42:01.661Z,8.35
2023-05-26T04:43:01.653Z,8.38
2023-05-26T04:44:01.680Z,8.38
2023-05-26T04:45:01.676Z,8.40
2023-05-26T04:46:01.744Z,8.42
2023-05-26T04:47:01.763Z,8.43
2023-05-26T04:48:01.672Z,8.46
2023-05-26T04:49:01.703Z,8.47
2023-05-26T04:50:01.680Z,8.50
2023-05-26T04:51:01.686Z,8.52
2023-05-26T04:52:01.704Z,8.55
2023-05-26T04:53:01.662Z,8.58
2023-05-26T04:54:01.714Z,8.58
2023-05-26T04:55:01.718Z,8.59
2023-05-26T04:56:04.326Z,8.61
2023-05-26T04:57:01.688Z,8.62
2023-05-26T04:58:01.675Z,8.65
2023-05-26T04:59:01.674Z,8.67
2023-05-26T05:00:01.709Z,8.68
2023-05-26T05:01:01.681Z,8.71
2023-05-26T05:02:01.753Z,8.75
2023-05-26T05:03:01.793Z,8.79
2023-05-26T05:04:01.742Z,8.84
2023-05-26T05:05:01.701Z,8.88
2023-05-26T05:06:01.719Z,8.93
2023-05-26T05:07:01.677Z,8.98
2023-05-26T05:08:01.730Z,9.01
2023-05-26T05:09:01.684Z,9.04
2023-05-26T05:10:01.708Z,9.08
2023-05-26T05:11:01.733Z,9.11
2023-05-26T05:12:01.696Z,9.15
2023-05-26T05:13:01.712Z,9.20
2023-05-26T05:14:01.685Z,9.28
2023-05-26T05:15:01.755Z,9.34
2023-05-26T05:16:01.787Z,9.43
2023-05-26T05:17:01.683Z,9.49
2023-05-26T05:18:01.794Z,9.53
2023-05-26T05:19:01.722Z,9.58
2023-05-26T05:20:14.213Z,9.64
2023-05-26T05:21:01.821Z,9.71
2023-05-26T05:22:01.731Z,9.77
2023-05-26T05:23:01.716Z,9.84
2023-05-26T05:24:01.713Z,9.90
2023-05-26T05:25:01.707Z,9.96
2023-05-26T05:26:01.721Z,10.00
2023-05-26T05:27:01.699Z,10.03
2023-05-26T05:28:01.699Z,10.08
2023-05-26T05:29:01.688Z,10.14
2023-05-26T05:30:01.716Z,10.19
2023-05-26T05:31:01.693Z,10.24
2023-05-26T05:32:01.721Z,10.29
2023-05-26T05:33:01.865Z,10.33
2023-05-26T05:34:01.721Z,10.39
2023-05-26T05:35:01.772Z,10.45
2023-05-26T05:36:01.709Z,10.51
2023-05-26T05:37:01.732Z,10.55
2023-05-26T05:38:01.712Z,10.58
2023-05-26T05:39:01.713Z,10.62
2023-05-26T05:40:01.803Z,10.66
2023-05-26T05:41:01.723Z,10.72
2023-05-26T05:42:01.752Z,10.76
2023-05-26T05:43:01.694Z,10.81
2023-05-26T05:44:01.735Z,10.86
2023-05-26T05:45:03.423Z,10.90
2023-05-26T05:46:01.727Z,10.94
2023-05-26T05:47:01.731Z,10.98
2023-05-26T05:48:01.782Z,11.01
2023-05-26T05:49:01.715Z,11.05
2023-05-26T05:50:01.717Z,11.09
2023-05-26T05:51:01.770Z,11.11
2023-05-26T05:52:01.726Z,11.15
2023-05-26T05:53:01.736Z,11.16
2023-05-26T05:54:01.703Z,11.18
2023-05-26T05:55:01.752Z,11.21
2023-05-26T05:56:04.362Z,11.22
2023-05-26T05:57:01.771Z,11.26
2023-05-26T05:58:01.716Z,11.27
2023-05-26T05:59:01.761Z,11.31
2023-05-26T06:00:01.870Z,11.32
2023-05-26T06:01:01.751Z,11.32
2023-05-26T06:02:01.779Z,11.38
2023-05-26T06:03:01.854Z,11.40
2023-05-26T06:04:01.772Z,11.44
2023-05-26T06:05:03.664Z,11.45
2023-05-26T06:06:01.905Z,11.47
2023-05-26T06:07:01.737Z,11.49
2023-05-26T06:08:01.723Z,11.51
2023-05-26T06:09:01.751Z,11.53
2023-05-26T06:10:01.785Z,11.56
2023-05-26T06:11:01.729Z,11.59
2023-05-26T06:12:01.746Z,11.61
2023-05-26T06:13:01.771Z,11.62
2023-05-26T06:14:01.737Z,11.64
2023-05-26T06:15:01.753Z,11.65
2023-05-26T06:16:01.802Z,11.68
2023-05-26T06:17:01.831Z,11.71
2023-05-26T06:18:01.997Z,11.74
2023-05-26T06:19:01.746Z,11.75
2023-05-26T06:20:01.824Z,11.77
2023-05-26T06:21:01.829Z,11.79
2023-05-26T06:22:01.750Z,11.82
2023-05-26T06:23:01.784Z,11.85
2023-05-26T06:24:01.772Z,11.88
2023-05-26T06:25:01.745Z,11.91
2023-05-26T06:26:01.747Z,11.95
2023-05-26T06:27:01.771Z,12.01
2023-05-26T06:28:01.761Z,12.04
2023-05-26T06:29:01.771Z,12.08
2023-05-26T06:30:01.768Z,12.12
2023-05-26T06:31:01.816Z,12.19
2023-05-26T06:32:01.747Z,12.22
2023-05-26T06:33:01.857Z,12.26
2023-05-26T06:34:01.905Z,12.31
2023-05-26T06:35:01.816Z,12.38
2023-05-26T06:36:01.901Z,12.41
2023-05-26T06:37:01.762Z,12.44
2023-05-26T06:38:01.774Z,12.48
2023-05-26T06:39:01.783Z,12.54
2023-05-26T06:40:01.773Z,12.59
2023-05-26T06:41:01.772Z,12.65
2023-05-26T06:42:01.785Z,12.70
2023-05-26T06:43:01.810Z,12.75
2023-05-26T06:44:01.794Z,12.80
2023-05-26T06:45:01.865Z,12.84
2023-05-26T06:46:01.870Z,12.89
2023-05-26T06:47:01.888Z,12.94
2023-05-26T06:48:01.896Z,13.00
2023-05-26T06:49:01.931Z,13.07
2023-05-26T06:50:01.869Z,13.12
2023-05-26T06:51:01.900Z,13.19
2023-05-26T06:52:01.917Z,13.25
2023-05-26T06:53:01.918Z,13.31
2023-05-26T06:54:01.958Z,13.36
2023-05-26T06:55:01.951Z,13.42
2023-05-26T06:56:01.972Z,13.47
2023-05-26T06:57:01.935Z,13.51
2023-05-26T06:58:02.053Z,13.58
2023-05-26T06:59:02.015Z,13.63
2023-05-26T07:00:02.043Z,13.71
2023-05-26T07:01:02.044Z,13.78
2023-05-26T07:02:02.121Z,13.88
2023-05-26T07:03:02.101Z,13.93
2023-05-26T07:04:02.049Z,13.99
2023-05-26T07:05:02.056Z,14.06
2023-05-26T07:06:02.169Z,14.17
2023-05-26T07:07:02.241Z,14.28
2023-05-26T07:08:02.092Z,14.38
2023-05-26T07:09:02.114Z,14.41
2023-05-26T07:10:02.123Z,14.43
2023-05-26T07:12:02.173Z,14.51
2023-05-26T07:13:02.143Z,14.53
2023-05-26T07:14:02.164Z,14.58
2023-05-26T07:15:02.174Z,14.62
2023-05-26T07:16:02.234Z,14.65
2023-05-26T07:17:02.159Z,14.66
2023-05-26T07:18:02.191Z,14.66
2023-05-26T07:19:02.168Z,14.69
2023-05-26T07:20:02.180Z,14.73
2023-05-26T07:21:02.215Z,14.80
2023-05-26T07:22:02.162Z,14.92
2023-05-26T07:23:02.210Z,15.11
2023-05-26T07:24:02.178Z,15.29
2023-05-26T07:25:02.166Z,15.51
2023-05-26T07:26:02.197Z,15.67
2023-05-26T07:27:02.186Z,15.87
2023-05-26T07:28:02.230Z,16.02
2023-05-26T07:29:02.201Z,16.19
2023-05-26T07:30:02.180Z,16.29
2023-05-26T07:31:02.190Z,16.34
2023-05-26T07:32:02.271Z,16.39
2023-05-26T07:33:02.212Z,16.43
2023-05-26T07:34:02.180Z,16.51
2023-05-26T07:35:02.179Z,16.49
2023-05-26T07:36:02.188Z,16.50
2023-05-26T07:37:02.203Z,16.72
2023-05-26T07:38:02.175Z,17.02
2023-05-26T07:39:02.268Z,17.34
2023-05-26T07:40:02.175Z,17.55
2023-05-26T07:41:02.237Z,17.67
2023-05-26T07:42:02.198Z,17.81
2023-05-26T07:43:02.220Z,17.99
2023-05-26T07:44:02.180Z,18.23
2023-05-26T07:45:02.219Z,18.41
2023-05-26T07:46:02.256Z,18.40
2023-05-26T07:47:02.208Z,18.46
2023-05-26T07:48:02.211Z,18.47
2023-05-26T07:49:02.204Z,18.47
2023-05-26T07:50:02.200Z,18.47
2023-05-26T07:51:02.213Z,18.43
2023-05-26T07:52:02.214Z,18.40
2023-05-26T07:53:02.189Z,18.44
2023-05-26T07:54:02.195Z,18.42
2023-05-26T07:55:02.206Z,18.53
2023-05-26T07:56:02.204Z,18.59
2023-05-26T07:57:02.252Z,18.72
2023-05-26T07:58:02.222Z,18.88
2023-05-26T07:59:02.213Z,19.04
2023-05-26T08:00:02.216Z,19.23
2023-05-26T08:01:02.192Z,19.42
2023-05-26T08:02:02.252Z,19.53
2023-05-26T08:03:02.340Z,19.66
2023-05-26T08:04:02.205Z,19.67
2023-05-26T08:05:02.227Z,19.70
2023-05-26T08:06:10.528Z,19.78
2023-05-26T08:07:02.259Z,19.83
2023-05-26T08:08:02.225Z,19.89
2023-05-26T08:09:02.255Z,19.89
2023-05-26T08:10:02.211Z,19.88
2023-05-26T08:11:02.246Z,19.88
2023-05-26T08:12:02.224Z,19.92
2023-05-26T08:13:02.240Z,19.99
2023-05-26T08:14:02.204Z,20.16
2023-05-26T08:15:02.212Z,20.33
2023-05-26T08:16:02.272Z,20.51
2023-05-26T08:17:02.253Z,20.70
2023-05-26T08:18:02.239Z,20.78
2023-05-26T08:19:02.243Z,20.80
2023-05-26T08:20:02.276Z,20.78
2023-05-26T08:21:02.246Z,20.80
2023-05-26T08:22:02.248Z,20.86
2023-05-26T08:23:02.265Z,20.97
2023-05-26T08:24:02.274Z,21.09
2023-05-26T08:25:02.292Z,21.15
2023-05-26T08:26:04.470Z,21.20
2023-05-26T08:27:02.263Z,21.24
2023-05-26T08:28:02.265Z,21.27
2023-05-26T08:29:02.269Z,21.05
2023-05-26T08:30:02.305Z,20.85
2023-05-26T08:31:02.305Z,20.73
2023-05-26T08:32:02.291Z,20.75
2023-05-26T08:33:02.268Z,20.83
2023-05-26T08:34:02.297Z,20.92
2023-05-26T08:35:02.248Z,20.95
2023-05-26T08:36:02.255Z,21.04
2023-05-26T08:37:02.510Z,21.09
2023-05-26T08:38:02.274Z,21.12
2023-05-26T08:39:02.266Z,21.17
2023-05-26T08:40:02.275Z,21.22
2023-05-26T08:41:02.289Z,21.36
2023-05-26T08:42:02.270Z,21.44
2023-05-26T08:43:02.272Z,21.41
2023-05-26T08:44:07.472Z,21.29
2023-05-26T08:45:02.312Z,21.23
2023-05-26T08:46:02.298Z,21.23
2023-05-26T08:47:02.304Z,21.22
2023-05-26T08:48:02.353Z,21.14
2023-05-26T08:49:02.286Z,21.05
2023-05-26T08:50:02.282Z,21.06
2023-05-26T08:51:02.309Z,21.03
2023-05-26T08:52:02.295Z,20.99
2023-05-26T08:53:06.527Z,20.99
2023-05-26T08:54:02.316Z,21.01
2023-05-26T08:55:02.308Z,21.12
2023-05-26T08:56:02.279Z,21.31
2023-05-26T08:57:02.295Z,21.51
2023-05-26T08:58:02.331Z,21.66
2023-05-26T08:59:02.277Z,21.73
2023-05-26T09:00:02.310Z,21.67
2023-05-26T09:01:02.397Z,21.68
2023-05-26T09:02:02.335Z,21.67
2023-05-26T09:03:02.328Z,21.73
2023-05-26T09:04:02.324Z,21.93
2023-05-26T09:05:02.300Z,22.05
2023-05-26T09:06:02.326Z,22.08
2023-05-26T09:08:02.357Z,22.17
2023-05-26T09:09:02.343Z,22.22
2023-05-26T09:10:02.350Z,22.21
2023-05-26T09:11:02.326Z,22.19
2023-05-26T09:12:02.302Z,22.25
2023-05-26T09:13:02.370Z,22.46
2023-05-26T09:14:02.329Z,22.63
2023-05-26T09:15:02.325Z,22.79
2023-05-26T09:16:09.928Z,23.02
2023-05-26T09:17:02.365Z,23.11
2023-05-26T09:18:02.325Z,22.91
2023-05-26T09:19:02.320Z,22.77
2023-05-26T09:20:02.410Z,22.74
2023-05-26T09:21:02.359Z,22.77
2023-05-26T09:22:02.351Z,22.61
2023-05-26T09:23:02.318Z,22.54
2023-05-26T09:24:02.377Z,22.48
2023-05-26T09:25:02.379Z,22.48
2023-05-26T09:26:02.359Z,22.57
2023-05-26T09:27:02.368Z,22.68
2023-05-26T09:28:02.383Z,22.75
2023-05-26T09:29:02.356Z,22.58
2023-05-26T09:30:02.338Z,22.51
2023-05-26T09:31:02.393Z,22.58
2023-05-26T09:32:02.365Z,22.78
2023-05-26T09:33:02.400Z,22.97
2023-05-26T09:34:02.373Z,23.24
2023-05-26T09:35:02.437Z,23.48
2023-05-26T09:36:02.508Z,23.59
2023-05-26T09:37:02.364Z,23.50
2023-05-26T09:38:02.353Z,23.32
2023-05-26T09:39:02.372Z,23.23
2023-05-26T09:40:02.422Z,23.32
2023-05-26T09:42:02.364Z,23.59
2023-05-26T09:43:02.373Z,23.42
2023-05-26T09:44:02.382Z,23.06
2023-05-26T09:45:02.396Z,22.65
2023-05-26T09:46:02.435Z,22.21
2023-05-26T09:47:02.450Z,21.85
2023-05-26T09:48:02.440Z,21.65
2023-05-26T09:49:02.367Z,21.56
2023-05-26T09:50:02.399Z,21.59
2023-05-26T09:51:02.429Z,21.78
2023-05-26T09:52:13.224Z,22.10
2023-05-26T09:53:02.412Z,22.49
2023-05-26T09:54:02.402Z,22.86
2023-05-26T09:55:02.383Z,23.03
2023-05-26T09:56:02.386Z,23.14
2023-05-26T09:57:02.405Z,23.20
2023-05-26T09:58:02.415Z,23.22
2023-05-26T09:59:02.401Z,23.34
2023-05-26T10:00:02.407Z,23.50
2023-05-26T10:01:02.382Z,23.61
2023-05-26T10:02:02.471Z,23.59
2023-05-26T10:03:02.455Z,23.62
2023-05-26T10:04:02.438Z,23.72
2023-05-26T10:05:02.433Z,23.88
2023-05-26T10:06:02.535Z,24.13
2023-05-26T10:07:02.407Z,24.27
2023-05-26T10:08:02.403Z,24.36
2023-05-26T10:09:02.458Z,24.52
2023-05-26T10:10:02.472Z,24.62
2023-05-26T10:11:02.413Z,24.55
2023-05-26T10:12:02.429Z,24.36
2023-05-26T10:13:02.428Z,24.23
2023-05-26T10:14:02.446Z,24.22
2023-05-26T10:15:02.416Z,24.09
2023-05-26T10:16:02.438Z,23.90
2023-05-26T10:17:02.490Z,23.77
2023-05-26T10:18:02.477Z,23.77
2023-05-26T10:19:02.426Z,23.81
2023-05-26T10:20:02.533Z,23.83
2023-05-26T10:21:02.464Z,23.81
2023-05-26T10:22:02.452Z,23.74
2023-05-26T10:23:02.539Z,23.77
2023-05-26T10:24:02.459Z,23.87
2023-05-26T10:25:02.476Z,23.97
2023-05-26T10:26:02.440Z,24.18
2023-05-26T10:27:02.438Z,24.52
2023-05-26T10:28:02.443Z,24.82
2023-05-26T10:29:02.440Z,24.96
2023-05-26T10:30:02.441Z,24.95
2023-05-26T10:31:02.449Z,24.83
2023-05-26T10:32:02.513Z,24.70
2023-05-26T10:33:02.463Z,24.73
2023-05-26T10:34:02.469Z,24.89
2023-05-26T10:35:02.472Z,25.05
2023-05-26T10:36:02.580Z,25.22
2023-05-26T10:37:02.458Z,25.31
2023-05-26T10:38:02.478Z,25.29
2023-05-26T10:39:02.448Z,25.33
2023-05-26T10:40:02.470Z,25.37
2023-05-26T10:41:02.523Z,25.59
2023-05-26T10:42:02.461Z,25.87
2023-05-26T10:43:02.486Z,26.01
2023-05-26T10:44:02.501Z,25.92
2023-05-26T10:45:02.500Z,25.71
2023-05-26T10:46:02.612Z,25.63
2023-05-26T10:47:02.507Z,25.74
2023-05-26T10:48:02.540Z,25.81
2023-05-26T10:49:02.450Z,25.87
2023-05-26T10:50:02.479Z,26.00
2023-05-26T10:51:02.544Z,26.09
2023-05-26T10:52:02.492Z,26.25
2023-05-26T10:53:02.493Z,26.40
2023-05-26T10:54:02.478Z,26.36
2023-05-26T10:55:02.479Z,26.31
2023-05-26T10:56:02.482Z,26.22
2023-05-26T10:57:02.476Z,26.18
2023-05-26T10:58:02.517Z,26.21
2023-05-26T10:59:02.480Z,26.28
2023-05-26T11:00:02.546Z,26.30
2023-05-26T11:01:02.544Z,26.30
2023-05-26T11:02:02.587Z,26.30
2023-05-26T11:03:02.593Z,26.24
2023-05-26T11:04:02.596Z,26.29
2023-05-26T11:05:02.510Z,26.27
2023-05-26T11:06:02.516Z,26.08
2023-05-26T11:07:02.560Z,25.90
2023-05-26T11:08:02.589Z,25.84
2023-05-26T11:09:02.527Z,25.99
2023-05-26T11:10:02.521Z,26.11
2023-05-26T11:11:02.537Z,26.15
2023-05-26T11:12:02.532Z,26.07
2023-05-26T11:13:02.537Z,26.05
2023-05-26T11:14:02.527Z,26.00
2023-05-26T11:15:02.511Z,25.88
2023-05-26T11:16:02.509Z,25.67
2023-05-26T11:17:02.530Z,25.49
2023-05-26T11:18:02.632Z,25.28
2023-05-26T11:19:02.558Z,25.27
2023-05-26T11:20:02.691Z,25.42
2023-05-26T11:21:02.523Z,25.64
2023-05-26T11:22:02.501Z,25.97
2023-05-26T11:23:02.578Z,26.25
2023-05-26T11:24:02.529Z,26.45
2023-05-26T11:25:02.570Z,26.50
2023-05-26T11:26:02.738Z,26.40
2023-05-26T11:27:02.547Z,26.13
2023-05-26T11:28:02.722Z,25.77
2023-05-26T11:29:04.568Z,25.46
2023-05-26T11:30:02.643Z,25.38
2023-05-26T11:31:02.638Z,25.53
2023-05-26T11:32:02.708Z,25.83
2023-05-26T11:33:02.722Z,26.10
2023-05-26T11:34:02.623Z,26.31
2023-05-26T11:35:02.545Z,26.51
2023-05-26T11:36:02.607Z,26.61
2023-05-26T11:37:02.589Z,26.57
2023-05-26T11:38:02.583Z,26.68
2023-05-26T11:39:02.712Z,26.88
2023-05-26T11:40:02.575Z,26.83
2023-05-26T11:41:02.553Z,26.70
2023-05-26T11:42:02.554Z,26.75
2023-05-26T11:43:02.671Z,27.01
2023-05-26T11:44:02.629Z,27.25
2023-05-26T11:45:02.566Z,27.47
2023-05-26T11:46:02.649Z,27.53
2023-05-26T11:47:02.700Z,27.44
2023-05-26T11:48:02.782Z,27.34
2023-05-26T11:49:02.650Z,27.13
2023-05-26T11:50:05.183Z,26.80
2023-05-26T11:51:02.692Z,26.49
2023-05-26T11:52:02.675Z,26.07
2023-05-26T11:53:02.707Z,25.71
2023-05-26T11:54:02.692Z,25.43
2023-05-26T11:55:02.728Z,25.34
2023-05-26T11:56:02.743Z,25.26
2023-05-26T11:57:03.621Z,25.33
2023-05-26T11:58:02.792Z,25.50
2023-05-26T11:59:02.689Z,25.75
2023-05-26T12:00:03.296Z,26.04
2023-05-26T12:01:02.726Z,26.27
2023-05-26T12:02:02.753Z,26.44
2023-05-26T12:03:02.711Z,26.39
2023-05-26T12:04:02.734Z,26.31
2023-05-26T12:05:02.670Z,26.19
2023-05-26T12:06:02.681Z,26.13
2023-05-26T12:07:02.719Z,26.28
2023-05-26T12:08:02.713Z,26.48
2023-05-26T12:09:02.723Z,26.67
2023-05-26T12:10:02.720Z,26.74
2023-05-26T12:11:02.764Z,26.67
2023-05-26T12:12:02.726Z,26.77
2023-05-26T12:13:02.775Z,26.82
2023-05-26T12:14:02.712Z,26.92
2023-05-26T12:15:02.728Z,27.08
2023-05-26T12:16:02.781Z,27.24
2023-05-26T12:17:02.757Z,27.37
2023-05-26T12:18:02.741Z,27.46
2023-05-26T12:19:02.730Z,27.46
2023-05-26T12:20:02.852Z,27.44
2023-05-26T12:21:02.701Z,27.50
2023-05-26T12:22:02.741Z,27.65
2023-05-26T12:23:02.756Z,27.66
2023-05-26T12:24:02.748Z,27.50
2023-05-26T12:25:02.770Z,27.46
2023-05-26T12:26:02.754Z,27.47
2023-05-26T12:27:02.720Z,27.52
2023-05-26T12:28:02.771Z,27.43
2023-05-26T12:29:02.762Z,27.33
2023-05-26T12:30:02.713Z,27.40
2023-05-26T12:31:02.833Z,27.50
2023-05-26T12:32:03.051Z,27.34
2023-05-26T12:33:02.758Z,26.96
2023-05-26T12:34:02.763Z,26.47
2023-05-26T12:35:02.726Z,25.88
2023-05-26T12:36:02.880Z,25.46
2023-05-26T12:37:02.704Z,25.41
2023-05-26T12:38:02.736Z,25.63
2023-05-26T12:39:02.770Z,25.98
2023-05-26T12:40:02.754Z,26.42
2023-05-26T12:41:02.964Z,26.88
2023-05-26T12:42:02.866Z,27.25
2023-05-26T12:43:02.723Z,27.46
2023-05-26T12:44:02.744Z,27.61
2023-05-26T12:45:02.771Z,27.79
2023-05-26T12:46:02.735Z,27.99
2023-05-26T12:47:02.754Z,28.13
2023-05-26T12:48:02.869Z,28.20
2023-05-26T12:49:02.826Z,28.12
2023-05-26T12:50:02.789Z,27.94
2023-05-26T12:51:02.832Z,27.76
2023-05-26T12:52:02.771Z,27.51
2023-05-26T12:53:02.791Z,27.33
2023-05-26T12:54:02.763Z,27.40
2023-05-26T12:55:02.789Z,27.52
2023-05-26T12:56:02.813Z,27.58
2023-05-26T12:57:02.796Z,27.67
2023-05-26T12:58:02.773Z,27.74
2023-05-26T12:59:10.555Z,27.89
2023-05-26T13:00:02.819Z,28.02
2023-05-26T13:01:03.022Z,28.23
2023-05-26T13:02:02.876Z,28.28
2023-05-26T13:03:02.875Z,28.13
2023-05-26T13:04:02.876Z,28.13
2023-05-26T13:05:02.816Z,28.18